Time;durP1;ratioP1;P1;durP2;ratioP2;P2;SDS_P1;SDS_P2;PMS_P1;PMS_P2;Temp;Humidity;BMP_temperature;BMP_pressure;BME280_temperature;BME280_humidity;BME280_pressure;Samples;Min_cycle;Max_cycle;Signal;HPM_P1;HPM_P2
2023/08/07 00:00:17;;;;;;;46.63;37.80;;;19.70;99.90;;;;;;4967623;28;20039;-65
2023/08/07 00:02:43;;;;;;;43.00;36.60;;;19.80;99.90;;;;;;4971220;28;20520;-65
2023/08/07 00:05:08;;;;;;;44.28;39.65;;;19.60;99.90;;;;;;4970967;28;20038;-65
2023/08/07 00:07:34;;;;;;;45.25;37.67;;;19.60;99.90;;;;;;4971079;28;20077;-65
2023/08/07 00:10:01;;;;;;;46.22;40.38;;;19.70;99.90;;;;;;4971208;28;20432;-64
2023/08/07 00:12:27;;;;;;;46.40;41.50;;;19.60;99.90;;;;;;4970164;28;20066;-64
2023/08/07 00:14:52;;;;;;;49.45;38.78;;;20.00;99.90;;;;;;4969704;28;20043;-64
2023/08/07 00:17:18;;;;;;;47.47;38.03;;;19.80;99.90;;;;;;4974320;28;20505;-64
2023/08/07 00:19:44;;;;;;;45.20;37.50;;;19.60;99.90;;;;;;4974529;28;20081;-65
2023/08/07 00:22:09;;;;;;;44.65;39.92;;;19.40;99.90;;;;;;4971151;28;20125;-64
2023/08/07 00:24:35;;;;;;;42.58;37.88;;;19.60;99.90;;;;;;4974558;28;20035;-64
2023/08/07 00:27:01;;;;;;;43.92;39.35;;;19.70;99.90;;;;;;4975048;28;20054;-64
2023/08/07 00:29:26;;;;;;;42.53;38.05;;;19.70;99.90;;;;;;4972344;28;20051;-64
2023/08/07 00:31:52;;;;;;;42.47;38.03;;;19.60;99.90;;;;;;4974537;28;20105;-64
2023/08/07 00:34:18;;;;;;;41.17;36.70;;;19.70;99.90;;;;;;4973838;28;20114;-64
2023/08/07 00:36:43;;;;;;;45.05;40.13;;;19.60;99.90;;;;;;4974104;28;20061;-64
2023/08/07 00:39:09;;;;;;;45.53;40.53;;;19.70;99.90;;;;;;4974194;28;20055;-65
2023/08/07 00:41:34;;;;;;;46.72;40.97;;;19.40;99.90;;;;;;4974452;28;20043;-64
2023/08/07 00:44:00;;;;;;;47.75;39.85;;;19.50;99.90;;;;;;4973632;28;20030;-65
2023/08/07 00:46:27;;;;;;;47.42;38.75;;;19.50;99.90;;;;;;4968442;28;20030;-65
2023/08/07 00:48:53;;;;;;;51.15;41.13;;;19.60;99.90;;;;;;4974278;28;20133;-65
2023/08/07 00:51:20;;;;;;;44.25;39.55;;;19.40;99.90;;;;;;4973965;28;20047;-64
2023/08/07 00:53:47;;;;;;;42.85;38.45;;;19.80;99.90;;;;;;4974171;28;20055;-64
2023/08/07 00:56:13;;;;;;;47.53;40.75;;;19.50;99.90;;;;;;4973733;28;20046;-65
2023/08/07 00:58:39;;;;;;;47.70;42.58;;;19.60;99.90;;;;;;4973644;28;20050;-64
2023/08/07 01:01:06;;;;;;;52.42;41.90;;;19.90;99.90;;;;;;4970703;28;20118;-64
2023/08/07 01:03:31;;;;;;;47.65;42.10;;;19.80;99.90;;;;;;4973083;28;20382;-65
2023/08/07 01:05:57;;;;;;;52.72;45.92;;;20.00;99.90;;;;;;4973684;28;20042;-64
2023/08/07 01:08:24;;;;;;;59.80;45.28;;;19.50;99.90;;;;;;4972369;28;20050;-63
2023/08/07 01:11:06;;;;;;;51.38;44.22;;;19.60;99.90;;;;;;4973712;28;20515;-63
2023/08/07 01:13:38;;;;;;;51.05;43.30;;;20.00;99.90;;;;;;4970134;28;20398;-63
2023/08/07 01:16:10;;;;;;;47.58;42.47;;;19.70;99.90;;;;;;4967519;28;20039;-64
2023/08/07 01:18:37;;;;;;;54.40;43.10;;;19.90;99.90;;;;;;4972787;28;20050;-63
2023/08/07 01:21:03;;;;;;;48.38;43.20;;;19.90;99.90;;;;;;4973154;28;20082;-63
2023/08/07 01:23:29;;;;;;;45.42;40.65;;;19.50;99.90;;;;;;4973714;28;20043;-63
2023/08/07 01:25:54;;;;;;;47.40;42.05;;;19.60;99.90;;;;;;4959910;28;20122;-63
2023/08/07 01:28:28;;;;;;;48.00;42.83;;;19.60;99.90;;;;;;4970453;28;20141;-64
2023/08/07 01:30:58;;;;;;;46.65;41.55;;;19.40;99.90;;;;;;4973430;28;20396;-63
2023/08/07 01:33:42;;;;;;;52.22;41.30;;;19.70;99.90;;;;;;4973703;28;20420;-64
2023/08/07 01:36:10;;;;;;;53.83;42.72;;;19.70;99.90;;;;;;4973165;28;20061;-65
2023/08/07 01:38:37;;;;;;;46.25;41.47;;;19.40;99.90;;;;;;4958310;28;20122;-65
2023/08/07 01:41:03;;;;;;;50.53;42.17;;;19.40;99.90;;;;;;4954064;29;20106;-63
2023/08/07 01:43:29;;;;;;;48.60;43.28;;;19.60;99.90;;;;;;4954053;29;20451;-63
2023/08/07 01:45:55;;;;;;;55.42;42.75;;;19.40;99.90;;;;;;4969723;28;20047;-64
2023/08/07 01:48:20;;;;;;;53.30;43.78;;;19.70;99.90;;;;;;4972980;28;20039;-64
2023/08/07 01:50:46;;;;;;;48.35;43.17;;;19.40;99.90;;;;;;4972789;28;20405;-64
2023/08/07 01:53:12;;;;;;;48.65;42.25;;;19.70;99.90;;;;;;4973117;28;20120;-63
2023/08/07 01:55:37;;;;;;;48.95;43.92;;;19.40;99.90;;;;;;4972144;28;20047;-63
2023/08/07 01:58:03;;;;;;;46.38;41.50;;;19.70;99.90;;;;;;4965399;28;20130;-64
2023/08/07 02:00:28;;;;;;;48.05;43.15;;;19.80;99.90;;;;;;4973076;28;20594;-63
2023/08/07 02:02:54;;;;;;;48.65;44.08;;;19.50;99.90;;;;;;4972709;28;20047;-63
2023/08/07 02:05:19;;;;;;;42.28;38.33;;;19.60;99.90;;;;;;4972984;28;20054;-63
2023/08/07 02:07:45;;;;;;;37.78;34.50;;;20.00;99.90;;;;;;4972530;28;20508;-64
2023/08/07 02:10:10;;;;;;;38.95;34.88;;;19.80;99.90;;;;;;4972695;28;20402;-63
2023/08/07 02:12:36;;;;;;;43.97;39.85;;;20.00;99.90;;;;;;4954654;28;20036;-65
2023/08/07 02:15:02;;;;;;;42.85;38.78;;;20.00;99.90;;;;;;4954840;28;20041;-66
2023/08/07 02:17:30;;;;;;;44.80;40.22;;;19.90;99.90;;;;;;4972200;28;20125;-65
2023/08/07 02:19:56;;;;;;;39.58;35.47;;;19.90;99.90;;;;;;4987270;28;20042;-65
2023/08/07 02:22:21;;;;;;;46.88;38.55;;;19.90;99.90;;;;;;4972371;28;20073;-65
2023/08/07 02:24:47;;;;;;;46.35;38.78;;;20.00;99.90;;;;;;4972449;28;20070;-65
2023/08/07 02:27:13;;;;;;;55.05;40.28;;;19.70;99.90;;;;;;4971538;28;20041;-65
2023/08/07 02:29:38;;;;;;;52.58;38.75;;;19.40;99.90;;;;;;4972601;28;20043;-66
2023/08/07 02:32:05;;;;;;;58.53;40.42;;;19.50;99.90;;;;;;4971045;28;20101;-66
2023/08/07 02:34:31;;;;;;;68.63;38.67;;;19.20;99.90;;;;;;4972247;28;20129;-66
2023/08/07 02:36:56;;;;;;;54.08;37.85;;;19.20;99.90;;;;;;4971631;28;20133;-66
2023/08/07 02:39:22;;;;;;;50.63;38.13;;;19.40;99.90;;;;;;4972119;28;20129;-66
2023/08/07 02:41:48;;;;;;;47.35;35.70;;;19.80;99.90;;;;;;4956654;28;20098;-67
2023/08/07 02:44:13;;;;;;;46.97;36.42;;;19.60;99.90;;;;;;4965179;28;20591;-66
2023/08/07 02:46:39;;;;;;;44.25;34.83;;;19.60;99.90;;;;;;4970317;28;20055;-66
2023/08/07 02:49:05;;;;;;;48.65;35.35;;;19.50;99.90;;;;;;4971832;28;20487;-66
2023/08/07 02:51:32;;;;;;;47.40;37.40;;;19.70;99.90;;;;;;4971769;28;20035;-66
2023/08/07 02:53:57;;;;;;;40.10;34.80;;;19.50;99.90;;;;;;4971954;28;20047;-66
2023/08/07 02:56:23;;;;;;;46.22;37.85;;;19.60;99.90;;;;;;4957263;28;20043;-66
2023/08/07 02:58:48;;;;;;;46.08;39.20;;;19.70;99.90;;;;;;4967243;28;20062;-66
2023/08/07 03:01:14;;;;;;;48.50;36.90;;;20.00;99.90;;;;;;4971764;28;20101;-66
2023/08/07 03:03:39;;;;;;;41.03;33.28;;;19.60;99.90;;;;;;4972093;28;20042;-66
2023/08/07 03:06:05;;;;;;;41.75;35.38;;;19.00;99.90;;;;;;4971887;28;20039;-66
2023/08/07 03:08:31;;;;;;;44.05;37.53;;;20.10;99.90;;;;;;4971469;28;20042;-67
2023/08/07 03:10:57;;;;;;;41.65;35.20;;;19.30;99.90;;;;;;4971564;28;20042;-67
2023/08/07 03:13:24;;;;;;;44.92;37.15;;;20.00;99.90;;;;;;4963503;28;20043;-67
2023/08/07 03:15:50;;;;;;;40.40;35.33;;;18.60;99.90;;;;;;4962192;28;20047;-67
2023/08/07 03:18:19;;;;;;;45.03;36.40;;;18.50;99.90;;;;;;4971115;28;20061;-67
2023/08/07 03:20:45;;;;;;;42.63;36.05;;;19.60;99.90;;;;;;4960567;28;20057;-66
2023/08/07 03:23:11;;;;;;;38.47;34.35;;;20.30;99.90;;;;;;4955731;28;20405;-68
2023/08/07 03:25:36;;;;;;;40.08;34.47;;;18.60;99.90;;;;;;4952170;29;20119;-68
2023/08/07 03:28:03;;;;;;;44.22;36.58;;;20.20;99.90;;;;;;4970432;28;20045;-67
2023/08/07 03:30:28;;;;;;;45.67;35.88;;;19.20;99.90;;;;;;4971614;28;20050;-68
2023/08/07 03:32:54;;;;;;;43.45;36.05;;;19.50;99.90;;;;;;4970042;28;20035;-67
2023/08/07 03:35:20;;;;;;;47.47;39.10;;;20.50;99.90;;;;;;4971689;28;20440;-67
2023/08/07 03:37:45;;;;;;;39.92;34.17;;;19.50;99.90;;;;;;4971330;28;20497;-68
2023/08/07 03:40:11;;;;;;;39.60;32.65;;;19.80;99.90;;;;;;4986157;28;20078;-67
2023/08/07 03:42:36;;;;;;;37.88;33.70;;;18.70;99.90;;;;;;4965038;28;20059;-68
2023/08/07 03:45:02;;;;;;;44.60;36.08;;;20.20;99.90;;;;;;4956753;28;20121;-68
2023/08/07 03:47:28;;;;;;;40.47;35.97;;;18.60;99.90;;;;;;4950628;28;20477;-67
2023/08/07 03:49:53;;;;;;;40.20;34.15;;;20.20;99.90;;;;;;4971011;28;20046;-68
2023/08/07 03:52:19;;;;;;;43.45;35.20;;;18.80;99.90;;;;;;4970987;28;20511;-68
2023/08/07 03:54:45;;;;;;;38.65;34.65;;;19.90;99.90;;;;;;4971151;28;20078;-68
2023/08/07 03:57:10;;;;;;;40.92;36.63;;;19.20;99.90;;;;;;4968693;28;20047;-68
2023/08/07 03:59:36;;;;;;;36.63;31.73;;;18.70;99.90;;;;;;4970577;28;20046;-67
2023/08/07 04:02:02;;;;;;;42.33;36.58;;;19.10;99.90;;;;;;4971046;28;20532;-68
2023/08/07 04:04:28;;;;;;;36.67;32.80;;;18.80;99.90;;;;;;4968131;28;20097;-67
2023/08/07 04:06:53;;;;;;;46.50;35.13;;;19.00;99.90;;;;;;4958944;28;20051;-68
2023/08/07 04:09:19;;;;;;;46.20;35.88;;;19.20;99.90;;;;;;4970924;28;20074;-68
2023/08/07 04:11:44;;;;;;;43.72;35.20;;;19.70;99.90;;;;;;4967468;28;20066;-68
2023/08/07 04:14:11;;;;;;;54.67;39.53;;;19.50;99.90;;;;;;4951965;29;20490;-67
2023/08/07 04:16:37;;;;;;;48.13;38.35;;;19.40;99.90;;;;;;4967964;28;20077;-67
2023/08/07 04:19:03;;;;;;;47.63;38.95;;;19.10;99.90;;;;;;4970560;28;20433;-68
2023/08/07 04:21:30;;;;;;;47.10;36.03;;;19.10;99.90;;;;;;4969270;28;20079;-67
2023/08/07 04:23:55;;;;;;;45.92;38.22;;;19.40;99.90;;;;;;4970890;28;20070;-67
2023/08/07 04:26:21;;;;;;;44.97;35.80;;;19.40;99.90;;;;;;4968061;28;20091;-67
2023/08/07 04:28:46;;;;;;;51.38;39.17;;;19.30;99.90;;;;;;4954947;28;20397;-67
2023/08/07 04:31:12;;;;;;;55.70;41.35;;;19.20;99.90;;;;;;4962626;28;20051;-68
2023/08/07 04:33:38;;;;;;;54.60;40.78;;;19.30;99.90;;;;;;4974019;28;20034;-65
2023/08/07 04:36:04;;;;;;;56.00;42.45;;;19.10;99.90;;;;;;4969334;28;20539;-65
2023/08/07 04:38:30;;;;;;;58.28;43.22;;;19.10;99.90;;;;;;4970585;28;20059;-64
2023/08/07 04:40:56;;;;;;;50.28;41.55;;;18.70;99.90;;;;;;4969939;28;20540;-65
2023/08/07 04:43:21;;;;;;;55.72;42.88;;;18.70;99.90;;;;;;4970805;28;20497;-64
2023/08/07 04:45:47;;;;;;;55.35;42.78;;;19.00;99.90;;;;;;4970459;28;20042;-65
2023/08/07 04:48:13;;;;;;;62.47;43.97;;;19.20;99.90;;;;;;4969705;28;20169;-65
2023/08/07 04:50:40;;;;;;;50.03;39.17;;;19.20;99.90;;;;;;4968551;28;20108;-65
2023/08/07 04:53:05;;;;;;;44.95;37.97;;;18.90;99.90;;;;;;4969349;28;20042;-65
2023/08/07 04:55:31;;;;;;;40.28;36.03;;;19.10;99.90;;;;;;4969407;28;20035;-65
2023/08/07 04:57:57;;;;;;;44.17;38.75;;;19.20;99.90;;;;;;4968809;28;20628;-65
2023/08/07 05:00:24;;;;;;;46.88;38.78;;;19.10;99.90;;;;;;4971184;28;20045;-65
2023/08/07 05:02:49;;;;;;;49.25;39.75;;;18.90;99.90;;;;;;4968809;28;20045;-65
2023/08/07 05:05:15;;;;;;;44.45;38.53;;;18.80;99.90;;;;;;4968173;28;20043;-65
2023/08/07 05:07:41;;;;;;;50.35;38.97;;;18.90;99.90;;;;;;4971276;28;20039;-65
2023/08/07 05:10:08;;;;;;;48.95;38.85;;;19.00;99.90;;;;;;4971212;28;20086;-65
2023/08/07 05:12:34;;;;;;;52.90;42.25;;;19.30;99.90;;;;;;4972653;28;20089;-65
2023/08/07 05:14:59;;;;;;;48.38;41.60;;;19.20;99.90;;;;;;4973302;28;20047;-65
2023/08/07 05:17:25;;;;;;;54.70;43.10;;;19.20;99.90;;;;;;4972746;28;20043;-65
2023/08/07 05:19:51;;;;;;;53.75;40.20;;;19.20;99.90;;;;;;4970554;28;20047;-65
2023/08/07 05:22:16;;;;;;;39.30;33.17;;;19.20;99.90;;;;;;4972358;28;20038;-65
2023/08/07 05:24:43;;;;;;;45.58;35.28;;;19.10;99.90;;;;;;4972363;28;20121;-64
2023/08/07 05:27:09;;;;;;;39.45;34.30;;;19.40;99.90;;;;;;4970593;28;20121;-65
2023/08/07 05:29:43;;;;;;;38.97;32.38;;;19.40;99.90;;;;;;4971482;28;20133;-69
2023/08/07 05:32:12;;;;;;;44.33;34.40;;;19.40;99.90;;;;;;4969622;28;20524;-65
2023/08/07 05:34:38;;;;;;;35.97;32.25;;;19.40;99.90;;;;;;4970166;28;20501;-65
2023/08/07 05:37:04;;;;;;;33.45;29.73;;;19.30;99.90;;;;;;4965490;28;20069;-65
2023/08/07 05:39:29;;;;;;;32.55;28.98;;;19.20;99.90;;;;;;4972268;28;20445;-64
2023/08/07 05:41:57;;;;;;;35.53;31.55;;;19.40;99.90;;;;;;4970435;28;20031;-64
2023/08/07 05:44:26;;;;;;;37.35;33.38;;;19.50;99.90;;;;;;4973550;28;20057;-65
2023/08/07 05:46:51;;;;;;;40.50;32.38;;;19.20;99.90;;;;;;4971395;28;20031;-66
2023/08/07 05:49:17;;;;;;;36.78;30.90;;;19.30;99.90;;;;;;4971945;28;20098;-66
2023/08/07 05:51:43;;;;;;;40.40;31.40;;;19.20;99.90;;;;;;4971305;28;20035;-66
2023/08/07 05:54:08;;;;;;;37.53;30.00;;;19.20;99.90;;;;;;4972599;28;20126;-65
2023/08/07 05:56:34;;;;;;;31.27;28.05;;;19.40;1.00;;;;;;4968526;28;20126;-65
2023/08/07 05:59:00;;;;;;;33.70;30.20;;;19.10;99.90;;;;;;4971366;28;20037;-66
2023/08/07 06:01:31;;;;;;;31.35;28.10;;;19.10;50.80;;;;;;4970303;28;20041;-65
2023/08/07 06:04:00;;;;;;;37.22;32.13;;;19.00;99.90;;;;;;4967489;28;20047;-66
2023/08/07 06:06:30;;;;;;;36.22;32.33;;;19.00;99.90;;;;;;4971646;28;20105;-66
2023/08/07 06:08:55;;;;;;;32.97;28.95;;;19.10;99.90;;;;;;4972755;28;20061;-66
2023/08/07 06:11:21;;;;;;;34.90;31.33;;;19.30;1.00;;;;;;4971436;28;20141;-66
2023/08/07 06:13:47;;;;;;;32.20;28.67;;;19.40;1.00;;;;;;4972320;28;20046;-66
2023/08/07 06:16:12;;;;;;;38.88;30.30;;;19.40;99.90;;;;;;4968308;28;20113;-66
2023/08/07 06:18:38;;;;;;;35.00;31.20;;;19.40;99.90;;;;;;4963271;28;20039;-66
2023/08/07 06:21:06;;;;;;;34.75;28.35;;;19.80;99.90;;;;;;4957400;28;20043;-66
2023/08/07 06:23:32;;;;;;;32.90;29.30;;;19.70;1.00;;;;;;4958511;28;20839;-66
2023/08/07 06:25:58;;;;;;;32.33;28.95;;;19.70;99.90;;;;;;4964715;28;20489;-66
2023/08/07 06:28:24;;;;;;;35.95;28.75;;;19.70;1.00;;;;;;4965912;28;20078;-66
2023/08/07 06:30:50;;;;;;;33.10;29.58;;;19.80;99.90;;;;;;4962259;28;20034;-67
2023/08/07 06:33:15;;;;;;;44.80;32.38;;;19.80;1.00;;;;;;4959668;28;20039;-67
2023/08/07 06:35:42;;;;;;;33.20;29.67;;;19.60;99.90;;;;;;4968619;28;20104;-66
2023/08/07 06:38:08;;;;;;;37.10;32.70;;;19.50;99.90;;;;;;4967590;28;20046;-67
2023/08/07 06:40:35;;;;;;;30.33;27.50;;;19.40;1.00;;;;;;4967420;28;20043;-66
2023/08/07 06:43:00;;;;;;;34.40;30.90;;;19.30;50.30;;;;;;4968994;28;20038;-66
2023/08/07 06:45:26;;;;;;;28.92;26.00;;;19.20;1.00;;;;;;4964946;28;20085;-65
2023/08/07 06:47:52;;;;;;;30.98;27.75;;;19.20;99.90;;;;;;4961030;28;20049;-66
2023/08/07 06:50:17;;;;;;;33.95;30.35;;;19.40;99.90;;;;;;4962936;28;20063;-66
2023/08/07 06:52:43;;;;;;;34.50;28.88;;;19.30;99.90;;;;;;4962067;28;20054;-66
2023/08/07 06:55:09;;;;;;;33.30;26.80;;;19.50;4.50;;;;;;4961513;28;20125;-66
2023/08/07 06:57:34;;;;;;;33.38;28.00;;;19.50;99.90;;;;;;4965318;28;20348;-67
2023/08/07 07:00:00;;;;;;;33.85;30.05;;;19.60;99.90;;;;;;4966222;28;20494;-67
2023/08/07 07:02:26;;;;;;;30.20;27.13;;;19.70;99.90;;;;;;4964643;28;20038;-66
2023/08/07 07:04:51;;;;;;;32.22;28.75;;;20.20;99.90;;;;;;4964948;28;20049;-66
2023/08/07 07:07:17;;;;;;;35.00;28.27;;;19.80;99.90;;;;;;4961782;28;20043;-67
2023/08/07 07:09:42;;;;;;;31.75;28.33;;;19.80;11.80;;;;;;4965541;28;20098;-66
2023/08/07 07:12:08;;;;;;;33.17;26.40;;;19.80;1.00;;;;;;4963351;28;20046;-67
2023/08/07 07:14:34;;;;;;;37.58;30.35;;;19.60;99.90;;;;;;4968919;28;20034;-66
2023/08/07 07:17:00;;;;;;;39.53;33.30;;;19.60;1.00;;;;;;4971021;28;20046;-66
2023/08/07 07:19:26;;;;;;;41.33;32.35;;;19.80;16.70;;;;;;4967625;28;20085;-71
2023/08/07 07:21:51;;;;;;;36.78;31.67;;;19.60;1.70;;;;;;4984740;28;20474;-66
2023/08/07 07:24:17;;;;;;;40.88;32.03;;;19.40;1.00;;;;;;4966492;28;20047;-66
2023/08/07 07:26:43;;;;;;;40.42;33.90;;;19.50;52.80;;;;;;4957825;28;20391;-66
2023/08/07 07:29:08;;;;;;;41.72;34.20;;;19.30;44.80;;;;;;4968173;28;20117;-65
2023/08/07 07:31:34;;;;;;;37.22;33.00;;;19.30;99.90;;;;;;4968427;28;20493;-65
2023/08/07 07:33:59;;;;;;;35.63;30.80;;;19.20;1.00;;;;;;4962517;28;20034;-65
2023/08/07 07:36:25;;;;;;;36.90;31.48;;;19.10;99.90;;;;;;4963125;28;20564;-65
2023/08/07 07:38:51;;;;;;;35.92;30.10;;;19.00;1.00;;;;;;4967389;28;20430;-65
2023/08/07 07:41:17;;;;;;;36.13;29.25;;;19.00;1.00;;;;;;4963938;28;20433;-65
2023/08/07 07:43:43;;;;;;;26.80;23.98;;;19.30;1.00;;;;;;4966854;28;20385;-65
2023/08/07 07:46:08;;;;;;;28.95;23.83;;;19.40;99.90;;;;;;4962119;28;20101;-65
2023/08/07 07:48:34;;;;;;;25.83;22.48;;;19.30;99.90;;;;;;4966896;28;20485;-65
2023/08/07 07:51:01;;;;;;;28.70;21.52;;;19.30;1.00;;;;;;4963849;28;20038;-65
2023/08/07 07:53:26;;;;;;;23.13;19.58;;;19.40;99.90;;;;;;4967589;28;20093;-65
2023/08/07 07:55:52;;;;;;;22.00;19.70;;;19.50;1.00;;;;;;4967838;28;20073;-65
2023/08/07 07:58:18;;;;;;;20.77;16.23;;;19.70;99.90;;;;;;4968558;28;20112;-65
2023/08/07 08:00:43;;;;;;;21.08;19.08;;;19.80;99.50;;;;;;4962577;28;20062;-65
2023/08/07 08:03:09;;;;;;;20.27;16.58;;;20.10;1.00;;;;;;4962311;28;20039;-65
2023/08/07 08:05:34;;;;;;;19.20;17.48;;;20.10;99.90;;;;;;4962005;28;20052;-66
2023/08/07 08:08:01;;;;;;;20.23;18.15;;;20.60;99.90;;;;;;4955417;28;20050;-65
2023/08/07 08:10:27;;;;;;;23.17;20.73;;;20.10;99.90;;;;;;4952741;28;20043;-65
2023/08/07 08:12:55;;;;;;;24.33;20.70;;;20.10;99.90;;;;;;4960248;28;20043;-65
2023/08/07 08:15:21;;;;;;;29.60;24.08;;;20.60;99.90;;;;;;4961384;28;20420;-65
2023/08/07 08:17:47;;;;;;;25.77;23.00;;;20.40;99.90;;;;;;4965425;28;20050;-66
2023/08/07 08:20:17;;;;;;;28.65;22.55;;;20.60;99.90;;;;;;4963213;28;20050;-66
2023/08/07 08:22:46;;;;;;;26.02;22.05;;;20.60;91.60;;;;;;4961939;28;20557;-65
2023/08/07 08:25:12;;;;;;;27.73;22.85;;;20.70;62.60;;;;;;4965360;28;20042;-65
2023/08/07 08:27:39;;;;;;;27.48;24.55;;;20.90;55.30;;;;;;4965100;28;20050;-66
2023/08/07 08:30:05;;;;;;;29.92;25.02;;;20.60;23.90;;;;;;4959693;28;20065;-65
2023/08/07 08:32:31;;;;;;;28.52;25.73;;;20.20;75.20;;;;;;4962686;28;20043;-65
2023/08/07 08:34:56;;;;;;;37.72;30.52;;;19.90;99.90;;;;;;4970614;28;20054;-64
2023/08/07 08:37:22;;;;;;;34.10;29.58;;;19.60;99.90;;;;;;4964979;28;20055;-65
2023/08/07 08:39:48;;;;;;;32.80;29.35;;;19.60;99.90;;;;;;4963639;28;20104;-65
2023/08/07 08:42:15;;;;;;;31.90;28.55;;;20.00;99.90;;;;;;4966443;28;20043;-65
2023/08/07 08:44:50;;;;;;;32.75;28.15;;;19.80;99.90;;;;;;4967263;28;20043;-65
2023/08/07 08:47:16;;;;;;;28.83;25.92;;;20.00;99.90;;;;;;4967348;28;20050;-66
2023/08/07 08:49:58;;;;;;;30.63;26.70;;;20.10;99.90;;;;;;4966002;28;20043;-65
2023/08/07 08:52:24;;;;;;;26.85;24.25;;;20.20;99.90;;;;;;4972411;28;20066;-65
2023/08/07 08:54:50;;;;;;;25.90;22.60;;;20.40;49.50;;;;;;4971716;28;20053;-65
2023/08/07 08:57:16;;;;;;;25.95;22.77;;;20.80;1.00;;;;;;4971717;28;20117;-65
2023/08/07 08:59:42;;;;;;;24.50;22.10;;;20.80;1.00;;;;;;4966114;28;20484;-65
2023/08/07 09:02:08;;;;;;;21.75;19.83;;;21.00;1.00;;;;;;4965002;28;20047;-65
2023/08/07 09:04:34;;;;;;;20.60;18.73;;;21.10;1.00;;;;;;4958168;28;20058;-65
2023/08/07 09:07:01;;;;;;;20.73;18.92;;;21.20;1.00;;;;;;4962428;28;20477;-65
2023/08/07 09:09:28;;;;;;;23.15;21.05;;;21.10;99.90;;;;;;4964771;28;20494;-66
2023/08/07 09:11:55;;;;;;;22.95;20.75;;;21.20;99.90;;;;;;4976327;28;20042;-65
2023/08/07 09:14:26;;;;;;;23.40;21.17;;;21.30;99.90;;;;;;4960702;28;20043;-66
2023/08/07 09:16:52;;;;;;;26.40;23.77;;;21.00;99.90;;;;;;4955762;28;20051;-67
2023/08/07 09:19:18;;;;;;;25.48;22.73;;;20.70;99.90;;;;;;4952864;28;20039;-66
2023/08/07 09:21:43;;;;;;;29.27;24.50;;;20.40;99.90;;;;;;4966079;28;20034;-66
2023/08/07 09:24:09;;;;;;;22.83;20.60;;;20.30;1.00;;;;;;4955862;28;20035;-66
2023/08/07 09:26:35;;;;;;;23.65;21.25;;;20.20;1.00;;;;;;4961554;28;20043;-65
2023/08/07 09:29:01;;;;;;;22.75;20.70;;;20.20;1.00;;;;;;4963505;28;20180;-65
2023/08/07 09:31:30;;;;;;;25.88;22.80;;;20.30;1.00;;;;;;4962455;28;20058;-65
2023/08/07 09:34:03;;;;;;;29.58;26.55;;;20.20;1.00;;;;;;4967172;28;20190;-65
2023/08/07 09:36:33;;;;;;;26.02;23.52;;;20.10;1.00;;;;;;4965568;28;20057;-65
2023/08/07 09:39:03;;;;;;;20.67;18.67;;;20.50;1.00;;;;;;4960266;28;20097;-65
2023/08/07 09:41:29;;;;;;;22.77;20.40;;;20.80;1.00;;;;;;4964470;28;20047;-65
2023/08/07 09:43:55;;;;;;;25.55;23.10;;;20.60;1.00;;;;;;4967176;28;20724;-65
2023/08/07 09:46:21;;;;;;;22.17;20.05;;;20.50;1.00;;;;;;4968547;28;20041;-65
2023/08/07 09:48:47;;;;;;;30.58;23.95;;;20.70;1.00;;;;;;4958101;28;20035;-65
2023/08/07 09:51:13;;;;;;;19.15;17.35;;;20.90;1.00;;;;;;4954709;28;20039;-66
2023/08/07 09:53:39;;;;;;;23.10;17.23;;;21.00;1.00;;;;;;4959689;28;20066;-65
2023/08/07 09:56:05;;;;;;;20.02;16.95;;;21.00;1.00;;;;;;4964917;28;20066;-65
2023/08/07 09:58:31;;;;;;;15.73;14.18;;;20.90;1.00;;;;;;4956587;28;20509;-66
2023/08/07 10:01:04;;;;;;;16.75;12.35;;;20.90;99.90;;;;;;4961168;28;20061;-66
2023/08/07 10:03:31;;;;;;;18.83;13.45;;;21.00;99.90;;;;;;4965902;28;20057;-66
2023/08/07 10:05:57;;;;;;;20.95;15.82;;;21.10;99.90;;;;;;4970306;28;20442;-65
2023/08/07 10:08:24;;;;;;;19.10;14.00;;;21.00;99.90;;;;;;4964027;28;20040;-65
2023/08/07 10:10:49;;;;;;;14.23;11.43;;;20.90;99.90;;;;;;4966765;28;20069;-65
2023/08/07 10:13:15;;;;;;;18.52;15.52;;;20.80;99.90;;;;;;4964586;28;20516;-65
2023/08/07 10:15:44;;;;;;;16.50;12.38;;;20.70;99.90;;;;;;4963726;28;20059;-65
2023/08/07 10:18:09;;;;;;;14.07;12.50;;;20.50;99.90;;;;;;4961328;28;20058;-66
2023/08/07 10:20:36;;;;;;;16.40;14.43;;;21.00;99.90;;;;;;4965293;28;20498;-65
2023/08/07 10:23:11;;;;;;;18.40;11.77;;;20.80;99.90;;;;;;4967931;28;20152;-65
2023/08/07 10:25:42;;;;;;;13.65;11.25;;;20.80;99.90;;;;;;4968467;28;20055;-65
2023/08/07 10:28:12;;;;;;;19.27;14.95;;;20.80;99.90;;;;;;4960156;28;20119;-65
2023/08/07 10:30:39;;;;;;;16.80;15.13;;;20.80;99.90;;;;;;4967615;28;20046;-65
2023/08/07 10:33:07;;;;;;;20.75;15.50;;;20.80;99.90;;;;;;4962803;28;20050;-65
2023/08/07 10:35:33;;;;;;;15.18;12.25;;;20.80;99.90;;;;;;4960529;28;20045;-65
2023/08/07 10:38:10;;;;;;;13.65;12.25;;;20.60;99.90;;;;;;4964178;28;20109;-65
2023/08/07 10:41:02;;;;;;;13.23;11.93;;;20.80;99.90;;;;;;4964386;28;20441;-65
2023/08/07 10:43:28;;;;;;;15.43;11.88;;;21.10;99.90;;;;;;4960707;28;20497;-65
2023/08/07 10:46:02;;;;;;;13.00;11.70;;;21.10;99.90;;;;;;4966283;28;20046;-64
2023/08/07 10:48:28;;;;;;;14.27;10.18;;;21.10;99.90;;;;;;4970474;28;20583;-64
2023/08/07 10:50:53;;;;;;;13.10;10.40;;;21.20;99.90;;;;;;4962139;28;20045;-64
2023/08/07 10:53:30;;;;;;;15.55;14.15;;;21.10;99.90;;;;;;4965483;28;20481;-64
2023/08/07 10:55:59;;;;;;;19.88;13.40;;;21.00;99.90;;;;;;4967185;28;20484;-64
2023/08/07 10:58:26;;;;;;;11.43;9.25;;;21.10;99.90;;;;;;4964818;28;20038;-64
2023/08/07 11:00:52;;;;;;;12.05;8.57;;;21.20;99.90;;;;;;4969970;28;20046;-64
2023/08/07 11:03:27;;;;;;;14.60;9.68;;;20.90;99.90;;;;;;4966938;28;20046;-63
2023/08/07 11:05:53;;;;;;;13.97;11.30;;;20.70;99.90;;;;;;4963153;28;20046;-64
2023/08/07 11:08:23;;;;;;;16.17;13.18;;;20.70;99.90;;;;;;4964873;28;20042;-64
2023/08/07 11:10:51;;;;;;;20.48;18.40;;;20.40;99.90;;;;;;4963535;28;20129;-64
2023/08/07 11:13:16;;;;;;;33.05;29.90;;;20.10;99.90;;;;;;4960111;28;20043;-64
2023/08/07 11:15:43;;;;;;;34.13;30.83;;;19.90;1.00;;;;;;4960680;28;20090;-63
2023/08/07 11:18:09;;;;;;;44.67;37.38;;;19.40;99.90;;;;;;4963664;28;20050;-63
2023/08/07 11:20:38;;;;;;;42.60;38.20;;;19.10;1.00;;;;;;4967777;28;20457;-63
2023/08/07 11:23:05;;;;;;;41.78;37.47;;;19.00;48.20;;;;;;4960894;28;20047;-64
2023/08/07 11:25:31;;;;;;;44.13;37.25;;;19.00;1.00;;;;;;4951960;28;20067;-63
2023/08/07 11:27:56;;;;;;;39.35;35.28;;;18.90;99.90;;;;;;4961044;28;20508;-63
2023/08/07 11:30:22;;;;;;;35.80;32.28;;;19.00;99.90;;;;;;4966614;28;20125;-63
2023/08/07 11:32:47;;;;;;;32.15;29.05;;;19.30;45.50;;;;;;4960716;28;20043;-63
2023/08/07 11:35:13;;;;;;;26.42;24.10;;;19.60;99.90;;;;;;4963443;28;20043;-63
2023/08/07 11:37:48;;;;;;;27.70;25.35;;;19.70;99.90;;;;;;4963240;28;20054;-63
2023/08/07 11:40:14;;;;;;;27.73;25.08;;;19.80;99.90;;;;;;4962389;28;20087;-63
2023/08/07 11:42:46;;;;;;;33.17;30.02;;;19.70;1.00;;;;;;4954782;28;20066;-62
2023/08/07 11:45:11;;;;;;;34.45;31.05;;;19.70;99.90;;;;;;4960537;28;20339;-63
2023/08/07 11:47:37;;;;;;;35.67;32.28;;;19.50;99.90;;;;;;4961199;28;20039;-64
2023/08/07 11:50:03;;;;;;;34.45;31.15;;;19.60;99.90;;;;;;4960571;28;20141;-63
2023/08/07 11:52:29;;;;;;;35.65;32.00;;;19.40;1.00;;;;;;4965548;28;20055;-63
2023/08/07 11:54:55;;;;;;;31.70;28.60;;;19.40;1.00;;;;;;4956605;28;20034;-64
2023/08/07 11:57:20;;;;;;;27.80;25.00;;;19.70;1.60;;;;;;4963758;28;20125;-63
2023/08/07 11:59:52;;;;;;;29.98;27.08;;;19.70;99.90;;;;;;4963483;28;20039;-64
2023/08/07 12:02:24;;;;;;;24.92;22.73;;;20.00;99.90;;;;;;4960048;28;20055;-64
2023/08/07 12:04:49;;;;;;;26.00;23.60;;;20.10;99.90;;;;;;4964465;28;20405;-64
2023/08/07 12:07:19;;;;;;;28.85;25.80;;;20.30;1.00;;;;;;4966682;28;20097;-63
2023/08/07 12:09:45;;;;;;;27.13;24.42;;;20.30;1.00;;;;;;4969304;28;20046;-64
2023/08/07 12:12:11;;;;;;;27.25;24.65;;;20.30;1.00;;;;;;4972456;28;20045;-63
2023/08/07 12:14:38;;;;;;;28.10;25.67;;;20.20;99.90;;;;;;4970271;28;20077;-63
2023/08/07 12:17:04;;;;;;;28.88;26.23;;;20.40;99.90;;;;;;4969622;28;20043;-64
2023/08/07 12:19:40;;;;;;;28.58;25.38;;;20.70;99.90;;;;;;4967046;28;20105;-63
2023/08/07 12:22:06;;;;;;;;;;;20.80;99.90;;;;;;4968298;28;20103;-64
2023/08/07 12:24:31;;;;;;;29.73;26.88;;;20.80;99.90;;;;;;4966983;28;19922;-63